Time;durP1;ratioP1;P1;durP2;ratioP2;P2;SDS_P1;SDS_P2;PMS_P1;PMS_P2;Temp;Humidity;BMP_temperature;BMP_pressure;BME280_temperature;BME280_humidity;BME280_pressure;Samples;Min_cycle;Max_cycle;Signal;HPM_P1;HPM_P2
2023/12/31 00:00:19;;;;;;;4.22;2.60;;;8.60;99.90;;;;;;5011600;28;20050;-67
2023/12/31 00:02:45;;;;;;;3.75;2.15;;;8.60;99.90;;;;;;5011437;28;20049;-67
2023/12/31 00:05:11;;;;;;;4.47;2.75;;;8.60;99.90;;;;;;4995170;28;20061;-67
2023/12/31 00:07:38;;;;;;;4.05;2.90;;;8.50;99.90;;;;;;5010937;28;20049;-67
2023/12/31 00:10:05;;;;;;;5.10;2.75;;;8.50;99.90;;;;;;5010837;28;20345;-67
2023/12/31 00:12:32;;;;;;;4.72;2.78;;;8.40;99.90;;;;;;5011038;28;20521;-67
2023/12/31 00:14:58;;;;;;;4.18;2.75;;;8.40;99.90;;;;;;5011392;28;20053;-67
2023/12/31 00:17:24;;;;;;;3.80;2.50;;;8.30;99.90;;;;;;5010558;28;20267;-67
2023/12/31 00:19:50;;;;;;;4.68;2.78;;;8.20;99.90;;;;;;5010918;28;20386;-68
2023/12/31 00:22:17;;;;;;;3.53;2.40;;;8.20;99.90;;;;;;5010684;28;20386;-67
2023/12/31 00:24:44;;;;;;;3.58;2.38;;;8.30;99.90;;;;;;5010679;28;20054;-68
2023/12/31 00:27:10;;;;;;;4.53;2.58;;;8.30;99.90;;;;;;5011713;28;20489;-67
2023/12/31 00:29:36;;;;;;;4.13;2.30;;;8.30;99.90;;;;;;5010711;28;20459;-67
2023/12/31 00:32:03;;;;;;;3.60;2.70;;;8.30;99.90;;;;;;5010058;28;20056;-68
2023/12/31 00:34:29;;;;;;;5.50;3.03;;;8.30;99.90;;;;;;5010450;28;20136;-68
2023/12/31 00:36:55;;;;;;;4.03;2.58;;;8.30;99.90;;;;;;5010373;28;20482;-67
2023/12/31 00:39:23;;;;;;;4.00;2.40;;;8.30;99.90;;;;;;4994025;28;20462;-67
2023/12/31 00:41:49;;;;;;;5.55;3.10;;;8.30;99.90;;;;;;5010181;28;20068;-68
2023/12/31 00:44:15;;;;;;;5.32;2.70;;;8.30;99.90;;;;;;5010612;28;20458;-68
2023/12/31 00:46:41;;;;;;;4.15;2.70;;;8.30;99.90;;;;;;5010873;28;20487;-68
2023/12/31 00:49:08;;;;;;;3.33;2.05;;;8.30;99.90;;;;;;5010025;28;20045;-68
2023/12/31 00:51:35;;;;;;;3.50;2.50;;;8.30;99.90;;;;;;5009827;28;20054;-68
2023/12/31 00:54:01;;;;;;;3.92;2.10;;;8.30;99.90;;;;;;5010174;28;20049;-68
2023/12/31 00:56:30;;;;;;;4.15;2.63;;;8.20;99.90;;;;;;5010159;28;20480;-68
2023/12/31 00:58:56;;;;;;;5.82;2.40;;;8.20;99.90;;;;;;4994067;28;20360;-68
2023/12/31 01:01:24;;;;;;;5.00;2.30;;;8.20;99.90;;;;;;4993285;28;20441;-68
2023/12/31 01:03:51;;;;;;;3.33;2.60;;;8.20;99.90;;;;;;5010158;28;20505;-68
2023/12/31 01:06:18;;;;;;;3.30;2.53;;;8.20;99.90;;;;;;5009895;28;20375;-68
2023/12/31 01:08:45;;;;;;;4.47;2.55;;;8.20;99.90;;;;;;5009661;28;20053;-68
2023/12/31 01:11:13;;;;;;;5.30;2.50;;;8.20;99.90;;;;;;4993157;28;20049;-68
2023/12/31 01:13:41;;;;;;;4.70;2.83;;;8.20;99.90;;;;;;5009519;28;20053;-68
2023/12/31 01:16:07;;;;;;;5.03;3.13;;;8.20;99.90;;;;;;5010018;28;20413;-68
2023/12/31 01:18:34;;;;;;;5.63;3.15;;;8.10;99.90;;;;;;5009897;28;20061;-68
2023/12/31 01:21:01;;;;;;;6.57;3.50;;;8.10;99.90;;;;;;5009294;28;20057;-68
2023/12/31 01:23:27;;;;;;;6.65;2.63;;;8.10;99.90;;;;;;5009939;28;20056;-68
2023/12/31 01:25:54;;;;;;;4.20;2.42;;;8.10;99.90;;;;;;4993570;28;20052;-68
2023/12/31 01:28:20;;;;;;;3.95;2.35;;;8.10;99.90;;;;;;4993175;28;20046;-68
2023/12/31 01:30:46;;;;;;;4.90;2.63;;;8.10;99.90;;;;;;5009479;28;20550;-68
2023/12/31 01:33:14;;;;;;;3.95;2.50;;;8.10;99.90;;;;;;5009345;28;20112;-68
2023/12/31 01:35:40;;;;;;;4.32;2.60;;;8.10;99.90;;;;;;5009491;28;20088;-68
2023/12/31 01:38:06;;;;;;;3.97;2.53;;;8.10;99.90;;;;;;5009201;28;20065;-68
2023/12/31 01:40:34;;;;;;;3.92;2.70;;;8.10;99.90;;;;;;4993093;28;20158;-68
2023/12/31 01:43:01;;;;;;;3.10;2.20;;;8.10;99.90;;;;;;5008989;28;20066;-68
2023/12/31 01:45:27;;;;;;;4.55;2.50;;;8.00;99.90;;;;;;5009482;28;20049;-68
2023/12/31 01:47:54;;;;;;;3.53;2.17;;;8.00;99.90;;;;;;4992953;28;20404;-68
2023/12/31 01:50:22;;;;;;;4.65;2.67;;;8.00;99.90;;;;;;5009137;28;20060;-68
2023/12/31 01:52:51;;;;;;;3.38;2.10;;;8.00;99.90;;;;;;5009005;28;20466;-68
2023/12/31 01:55:19;;;;;;;3.97;2.17;;;7.90;99.90;;;;;;5009367;28;20495;-68
2023/12/31 01:57:46;;;;;;;4.03;2.10;;;8.00;99.90;;;;;;4992494;28;20470;-68
2023/12/31 02:00:13;;;;;;;4.50;2.20;;;8.00;99.90;;;;;;5008990;28;20050;-67
2023/12/31 02:02:45;;;;;;;3.65;2.45;;;8.00;99.90;;;;;;5008895;28;20058;-68
2023/12/31 02:05:12;;;;;;;3.72;2.40;;;7.90;99.90;;;;;;5009052;28;20053;-68
2023/12/31 02:07:38;;;;;;;3.92;2.10;;;7.90;99.90;;;;;;5008730;28;20073;-68
2023/12/31 02:10:05;;;;;;;5.50;2.30;;;7.80;99.90;;;;;;5008759;28;20045;-68
2023/12/31 02:12:32;;;;;;;4.90;2.50;;;7.90;99.90;;;;;;5008676;28;20517;-68
2023/12/31 02:14:58;;;;;;;3.75;2.38;;;7.90;99.90;;;;;;5009421;28;20056;-68
2023/12/31 02:17:26;;;;;;;3.40;2.20;;;7.90;99.90;;;;;;4992294;28;20046;-68
2023/12/31 02:19:52;;;;;;;4.28;2.05;;;8.00;99.90;;;;;;5008320;28;20071;-68
2023/12/31 02:22:20;;;;;;;3.00;1.98;;;8.00;99.90;;;;;;5008471;28;20046;-67
2023/12/31 02:24:48;;;;;;;4.30;2.10;;;8.00;99.90;;;;;;5008864;28;20549;-68
2023/12/31 02:27:19;;;;;;;3.35;1.80;;;8.00;99.90;;;;;;4976422;28;20136;-68
2023/12/31 02:29:46;;;;;;;3.45;2.08;;;7.90;99.90;;;;;;5008599;28;20050;-68
2023/12/31 02:32:13;;;;;;;4.55;2.10;;;7.90;99.90;;;;;;5008424;28;20042;-68
2023/12/31 02:34:44;;;;;;;4.93;2.20;;;7.90;99.90;;;;;;5008969;28;20079;-67
2023/12/31 02:37:11;;;;;;;3.47;2.10;;;7.90;99.90;;;;;;4992002;28;20521;-68
2023/12/31 02:39:40;;;;;;;3.10;1.95;;;7.90;99.90;;;;;;5008864;28;20052;-68
2023/12/31 02:42:08;;;;;;;2.55;1.83;;;7.80;99.90;;;;;;5008447;28;20582;-68
2023/12/31 02:44:42;;;;;;;4.50;1.75;;;7.80;99.90;;;;;;5008525;28;20049;-67
2023/12/31 02:47:11;;;;;;;3.22;2.00;;;7.80;99.90;;;;;;4992559;28;20065;-68
2023/12/31 02:49:40;;;;;;;3.22;2.20;;;7.80;99.90;;;;;;5008580;28;20056;-68
2023/12/31 02:52:06;;;;;;;4.15;2.20;;;7.80;99.90;;;;;;5008168;28;20072;-68
2023/12/31 02:54:33;;;;;;;3.47;2.40;;;7.80;99.90;;;;;;5008459;28;20042;-68
2023/12/31 02:56:59;;;;;;;4.47;2.42;;;7.80;99.90;;;;;;5007993;28;20058;-68
2023/12/31 02:59:25;;;;;;;3.97;2.28;;;7.90;99.90;;;;;;5008684;28;20450;-68
2023/12/31 03:01:53;;;;;;;3.22;2.00;;;7.90;99.90;;;;;;5008090;28;20114;-68
2023/12/31 03:04:19;;;;;;;3.90;1.90;;;7.90;99.90;;;;;;5008821;28;20446;-68
2023/12/31 03:06:51;;;;;;;2.85;2.00;;;7.90;99.90;;;;;;5008603;28;20133;-68
2023/12/31 03:09:18;;;;;;;3.47;1.98;;;8.00;99.90;;;;;;4992245;28;20049;-68
2023/12/31 03:11:50;;;;;;;4.00;2.17;;;8.00;99.90;;;;;;4992180;28;20061;-68
2023/12/31 03:14:17;;;;;;;3.95;2.30;;;8.00;99.90;;;;;;5008723;28;20046;-68
2023/12/31 03:16:44;;;;;;;3.50;2.47;;;8.00;99.90;;;;;;5008454;28;20061;-68
2023/12/31 03:19:11;;;;;;;5.10;2.40;;;8.00;99.90;;;;;;5007876;28;20057;-68
2023/12/31 03:21:38;;;;;;;3.25;2.50;;;8.00;99.90;;;;;;5007896;28;20065;-65
2023/12/31 03:24:05;;;;;;;3.67;2.53;;;8.10;99.90;;;;;;5007942;28;20054;-69
2023/12/31 03:26:33;;;;;;;3.80;2.60;;;8.10;99.90;;;;;;4992019;28;20065;-68
2023/12/31 03:29:00;;;;;;;3.50;2.47;;;8.10;99.90;;;;;;4991490;28;20495;-68
2023/12/31 03:31:28;;;;;;;5.35;2.70;;;8.10;99.90;;;;;;5010977;28;20053;-68
2023/12/31 03:33:55;;;;;;;4.50;2.55;;;8.10;99.90;;;;;;5011491;28;20065;-68
2023/12/31 03:36:24;;;;;;;3.60;2.35;;;8.00;99.90;;;;;;5011454;28;20050;-67
2023/12/31 03:38:52;;;;;;;3.55;2.75;;;8.10;99.90;;;;;;5011288;28;20458;-68
2023/12/31 03:41:18;;;;;;;5.25;3.05;;;8.10;99.90;;;;;;5011452;28;20054;-68
2023/12/31 03:43:48;;;;;;;3.85;2.33;;;8.00;99.90;;;;;;5011753;28;20050;-68
2023/12/31 03:46:16;;;;;;;4.78;2.50;;;8.10;99.90;;;;;;5011631;28;20045;-68
2023/12/31 03:48:43;;;;;;;5.32;2.60;;;8.00;99.90;;;;;;5012367;28;20069;-68
2023/12/31 03:51:09;;;;;;;4.40;2.80;;;8.00;99.90;;;;;;5011966;28;20045;-68
2023/12/31 03:53:36;;;;;;;3.75;2.65;;;8.10;99.90;;;;;;5011244;28;20475;-68
2023/12/31 03:56:03;;;;;;;4.82;2.50;;;7.90;99.90;;;;;;5011466;28;20060;-68
2023/12/31 03:58:29;;;;;;;4.40;2.80;;;8.10;99.90;;;;;;5010803;28;20065;-68
2023/12/31 04:00:55;;;;;;;4.55;2.72;;;8.10;99.90;;;;;;5010954;28;20398;-68
2023/12/31 04:03:22;;;;;;;4.15;2.72;;;8.10;99.90;;;;;;4995304;28;20072;-68
2023/12/31 04:05:48;;;;;;;4.20;2.92;;;8.10;99.90;;;;;;5011097;28;20060;-68
2023/12/31 04:08:15;;;;;;;4.75;2.83;;;8.10;99.90;;;;;;4994580;28;20149;-67
2023/12/31 04:10:42;;;;;;;4.40;2.70;;;8.10;99.90;;;;;;5010373;28;20092;-68
2023/12/31 04:13:09;;;;;;;4.75;2.67;;;8.20;99.90;;;;;;5011001;28;20050;-68
2023/12/31 04:15:36;;;;;;;4.20;2.30;;;8.20;99.90;;;;;;4994569;28;20049;-68
2023/12/31 04:18:04;;;;;;;3.47;2.25;;;8.20;99.90;;;;;;5010648;28;20053;-69
2023/12/31 04:20:31;;;;;;;3.97;2.42;;;8.20;99.90;;;;;;5010692;28;20070;-68
2023/12/31 04:22:57;;;;;;;3.40;2.47;;;8.20;99.90;;;;;;5011050;28;20057;-68
2023/12/31 04:25:23;;;;;;;4.13;2.50;;;8.10;99.90;;;;;;5010796;28;20050;-68
2023/12/31 04:27:50;;;;;;;4.45;2.40;;;8.20;99.90;;;;;;5010797;28;20061;-68
2023/12/31 04:30:18;;;;;;;3.83;2.40;;;8.20;99.90;;;;;;5010852;28;20049;-68
2023/12/31 04:32:48;;;;;;;4.25;2.58;;;8.20;99.90;;;;;;5010600;28;20057;-68
2023/12/31 04:35:15;;;;;;;3.88;2.30;;;8.20;99.90;;;;;;5010810;28;20042;-68
2023/12/31 04:37:41;;;;;;;3.65;2.47;;;8.10;99.90;;;;;;5010271;28;20061;-68
2023/12/31 04:40:08;;;;;;;4.07;2.10;;;8.20;99.90;;;;;;5010393;28;20057;-68
2023/12/31 04:42:34;;;;;;;3.28;2.20;;;8.20;99.90;;;;;;5009469;28;20060;-68
2023/12/31 04:45:04;;;;;;;3.53;2.20;;;8.20;99.90;;;;;;5010859;28;20358;-68
2023/12/31 04:47:32;;;;;;;4.13;2.22;;;8.30;99.90;;;;;;5010175;28;20386;-68
2023/12/31 04:49:58;;;;;;;4.50;2.10;;;8.30;99.90;;;;;;5010116;28;20383;-68
2023/12/31 04:52:25;;;;;;;3.42;2.42;;;8.30;99.90;;;;;;5010955;28;20142;-68
2023/12/31 04:54:52;;;;;;;4.13;2.10;;;8.30;99.90;;;;;;5010196;28;20050;-67
2023/12/31 04:57:18;;;;;;;2.90;2.20;;;8.30;99.90;;;;;;5010224;28;20050;-68
2023/12/31 04:59:45;;;;;;;3.67;2.35;;;8.30;99.90;;;;;;5010358;28;20112;-68
2023/12/31 05:02:11;;;;;;;4.30;2.50;;;8.30;99.90;;;;;;5010948;28;20072;-68
2023/12/31 05:04:39;;;;;;;4.15;2.30;;;8.30;99.90;;;;;;5009931;28;20088;-68
2023/12/31 05:07:08;;;;;;;3.80;2.33;;;8.30;99.90;;;;;;5009738;28;20069;-68
2023/12/31 05:09:38;;;;;;;4.13;2.35;;;8.30;99.90;;;;;;5009802;28;20046;-68
2023/12/31 05:12:06;;;;;;;4.53;2.40;;;8.30;99.90;;;;;;5009368;28;20057;-68
2023/12/31 05:14:32;;;;;;;3.88;2.50;;;8.30;99.90;;;;;;5011275;28;20132;-68
2023/12/31 05:17:00;;;;;;;4.22;2.50;;;8.30;99.90;;;;;;5009734;28;20389;-68
2023/12/31 05:19:26;;;;;;;4.75;2.30;;;8.30;99.90;;;;;;5009320;28;20498;-67
2023/12/31 05:21:52;;;;;;;3.72;2.40;;;8.30;99.90;;;;;;5009603;28;20053;-68
2023/12/31 05:24:19;;;;;;;4.88;2.55;;;8.30;99.90;;;;;;5009803;28;20394;-68
2023/12/31 05:26:45;;;;;;;5.00;2.83;;;8.30;99.90;;;;;;5010203;28;20104;-68
2023/12/31 05:29:13;;;;;;;3.55;2.60;;;8.40;99.90;;;;;;5009344;28;20049;-67
2023/12/31 05:31:40;;;;;;;3.60;2.22;;;8.40;99.90;;;;;;5009053;28;20073;-68
2023/12/31 05:34:06;;;;;;;5.78;2.78;;;8.40;99.90;;;;;;4993269;28;20046;-67
2023/12/31 05:36:32;;;;;;;3.60;2.35;;;8.40;99.90;;;;;;5009271;28;20509;-68
2023/12/31 05:38:59;;;;;;;3.78;2.60;;;8.40;99.90;;;;;;5009267;28;20057;-68
2023/12/31 05:41:25;;;;;;;4.45;2.50;;;8.40;99.90;;;;;;5008791;28;20057;-68
2023/12/31 05:43:51;;;;;;;5.35;3.30;;;8.40;99.90;;;;;;5009550;28;20404;-67
2023/12/31 05:46:18;;;;;;;4.60;2.80;;;8.40;99.90;;;;;;5009403;28;20104;-68
2023/12/31 05:48:45;;;;;;;5.18;2.95;;;8.40;99.90;;;;;;4992948;28;20119;-68
2023/12/31 05:51:12;;;;;;;4.35;2.75;;;8.50;99.90;;;;;;5008557;28;20054;-68
2023/12/31 05:53:39;;;;;;;4.57;2.95;;;8.40;99.90;;;;;;4992938;28;20423;-68
2023/12/31 05:56:06;;;;;;;4.25;3.03;;;8.40;99.90;;;;;;4993087;28;20049;-68
2023/12/31 05:58:32;;;;;;;4.63;3.20;;;8.50;99.90;;;;;;5008620;28;20054;-68
2023/12/31 06:00:58;;;;;;;5.47;3.45;;;8.40;99.90;;;;;;4992247;28;20055;-68
2023/12/31 06:03:25;;;;;;;6.95;3.33;;;8.50;99.90;;;;;;5010273;28;20065;-68
2023/12/31 06:05:51;;;;;;;4.75;3.60;;;8.50;99.90;;;;;;5008916;28;20388;-68
2023/12/31 06:08:20;;;;;;;7.70;3.63;;;8.50;99.90;;;;;;5008945;28;20096;-68
2023/12/31 06:10:47;;;;;;;4.28;3.17;;;8.40;99.90;;;;;;4992254;28;20049;-68
2023/12/31 06:13:14;;;;;;;4.55;3.30;;;8.40;99.90;;;;;;5009141;28;20072;-68
2023/12/31 06:15:41;;;;;;;4.93;3.28;;;8.40;99.90;;;;;;5008696;28;20471;-68
2023/12/31 06:18:07;;;;;;;5.72;3.28;;;8.40;99.90;;;;;;5008847;28;20382;-68
2023/12/31 06:20:40;;;;;;;5.30;3.30;;;8.40;99.90;;;;;;5008491;28;20050;-68
2023/12/31 06:23:06;;;;;;;4.78;3.75;;;8.40;99.90;;;;;;5008510;28;20390;-68
2023/12/31 06:25:36;;;;;;;4.78;3.85;;;8.50;99.90;;;;;;5008713;28;20054;-68
2023/12/31 06:28:02;;;;;;;4.82;3.15;;;8.50;99.90;;;;;;5008646;28;20053;-68
2023/12/31 06:30:29;;;;;;;6.07;3.70;;;8.50;99.90;;;;;;4991791;28;20481;-68
2023/12/31 06:32:55;;;;;;;4.38;2.90;;;8.40;99.90;;;;;;5008880;28;20038;-68
2023/12/31 06:35:22;;;;;;;3.88;3.30;;;8.40;99.90;;;;;;5008743;28;20054;-68
2023/12/31 06:37:49;;;;;;;7.03;3.63;;;8.50;99.90;;;;;;5008864;28;20359;-68
2023/12/31 06:40:16;;;;;;;5.15;3.13;;;8.50;99.90;;;;;;5008689;28;20057;-68
2023/12/31 06:42:42;;;;;;;6.05;3.47;;;8.50;99.90;;;;;;5008478;28;20262;-68
2023/12/31 06:45:08;;;;;;;5.07;3.22;;;8.50;99.90;;;;;;5008680;28;20362;-68
2023/12/31 06:47:35;;;;;;;5.07;2.90;;;8.50;99.90;;;;;;5008547;28;20042;-68
2023/12/31 06:50:02;;;;;;;5.18;2.80;;;8.50;99.90;;;;;;5008528;28;20046;-68
2023/12/31 06:52:28;;;;;;;5.18;3.10;;;8.60;99.90;;;;;;5007807;28;20046;-68
2023/12/31 06:54:55;;;;;;;5.07;3.03;;;8.60;99.90;;;;;;5008284;28;20046;-68
2023/12/31 06:57:21;;;;;;;4.60;3.30;;;8.60;99.90;;;;;;5008974;28;20058;-67
2023/12/31 06:59:48;;;;;;;6.32;3.40;;;8.60;99.90;;;;;;5008525;28;20466;-68
2023/12/31 07:02:14;;;;;;;5.43;3.20;;;8.60;99.90;;;;;;5008087;28;20070;-68
2023/12/31 07:04:40;;;;;;;5.88;3.03;;;8.70;99.90;;;;;;4993203;28;20215;-68
2023/12/31 07:07:06;;;;;;;4.15;2.65;;;8.80;99.90;;;;;;5012325;28;20057;-68
2023/12/31 07:09:33;;;;;;;5.40;3.30;;;8.90;99.90;;;;;;5011515;28;20080;-68
2023/12/31 07:11:59;;;;;;;4.18;2.63;;;8.80;99.90;;;;;;4995472;28;20057;-68
2023/12/31 07:14:26;;;;;;;5.15;3.20;;;8.90;99.90;;;;;;5011996;28;20433;-68
2023/12/31 07:16:53;;;;;;;7.45;3.65;;;8.90;99.90;;;;;;4996067;28;20454;-68
2023/12/31 07:19:20;;;;;;;4.45;3.28;;;9.00;99.90;;;;;;5011827;28;20073;-68
2023/12/31 07:21:46;;;;;;;4.05;2.80;;;8.90;99.90;;;;;;5011658;28;20057;-68
2023/12/31 07:24:12;;;;;;;3.45;2.53;;;8.90;99.90;;;;;;4995850;28;20042;-68
2023/12/31 07:26:39;;;;;;;3.80;2.90;;;9.00;99.90;;;;;;5012936;28;20471;-68
2023/12/31 07:29:05;;;;;;;5.75;3.05;;;9.00;99.90;;;;;;5011287;28;20065;-68
2023/12/31 07:31:35;;;;;;;5.07;3.17;;;8.90;99.90;;;;;;4995293;28;20049;-68
2023/12/31 07:34:01;;;;;;;5.25;3.10;;;9.00;99.90;;;;;;5011446;28;20054;-68
2023/12/31 07:36:28;;;;;;;4.53;2.92;;;8.90;99.90;;;;;;4995190;28;20137;-68
2023/12/31 07:38:54;;;;;;;4.38;2.88;;;9.00;99.90;;;;;;5011338;28;20046;-68
2023/12/31 07:41:20;;;;;;;5.07;3.13;;;9.00;99.90;;;;;;5011285;28;20470;-68
2023/12/31 07:43:46;;;;;;;4.07;2.97;;;9.00;99.90;;;;;;5011534;28;20050;-68
2023/12/31 07:46:14;;;;;;;6.07;3.33;;;9.00;99.90;;;;;;5011860;28;20782;-68
2023/12/31 07:48:41;;;;;;;4.60;3.08;;;9.00;99.90;;;;;;5011222;28;20144;-68
2023/12/31 07:51:09;;;;;;;4.63;3.20;;;9.00;99.90;;;;;;5010794;28;20075;-68
2023/12/31 07:53:35;;;;;;;5.30;2.90;;;9.00;99.90;;;;;;5011618;28;20138;-68
2023/12/31 07:56:01;;;;;;;5.43;3.38;;;9.10;99.90;;;;;;5011489;28;20046;-67
2023/12/31 07:58:27;;;;;;;4.35;2.92;;;8.90;99.90;;;;;;5011887;28;20046;-68
2023/12/31 08:00:55;;;;;;;5.57;3.00;;;8.90;99.90;;;;;;5010825;28;20046;-68
2023/12/31 08:03:23;;;;;;;4.22;2.63;;;8.90;99.90;;;;;;5011330;28;20051;-68
2023/12/31 08:05:50;;;;;;;5.03;3.25;;;8.90;99.90;;;;;;5012631;28;20049;-68
2023/12/31 08:08:17;;;;;;;4.03;3.15;;;8.90;99.90;;;;;;5010721;28;20375;-68
2023/12/31 08:10:44;;;;;;;6.43;3.85;;;8.90;99.90;;;;;;5010444;28;20057;-68
2023/12/31 08:13:11;;;;;;;5.13;3.17;;;9.00;99.90;;;;;;4994878;28;20057;-68
2023/12/31 08:15:37;;;;;;;3.88;3.10;;;8.90;99.90;;;;;;4994114;28;20056;-68
2023/12/31 08:18:05;;;;;;;5.10;3.40;;;8.90;99.90;;;;;;5010041;28;20454;-69
2023/12/31 08:20:33;;;;;;;4.57;3.22;;;8.90;99.90;;;;;;5010355;28;20050;-68
2023/12/31 08:23:00;;;;;;;5.20;3.47;;;9.00;99.90;;;;;;5010685;28;20053;-68
2023/12/31 08:25:27;;;;;;;4.00;3.05;;;9.00;99.90;;;;;;5011892;28;20057;-68
2023/12/31 08:27:53;;;;;;;4.22;3.08;;;9.00;99.90;;;;;;5010470;28;20387;-68
2023/12/31 08:30:20;;;;;;;4.45;3.25;;;9.00;99.90;;;;;;5010518;28;20050;-68
2023/12/31 08:32:48;;;;;;;3.88;2.90;;;9.00;99.90;;;;;;5010795;28;20046;-68
2023/12/31 08:35:15;;;;;;;4.75;3.15;;;9.00;99.90;;;;;;5010428;28;20518;-68
2023/12/31 08:37:41;;;;;;;4.88;3.17;;;9.00;99.90;;;;;;5010291;28;20417;-68
2023/12/31 08:40:10;;;;;;;3.78;2.90;;;9.00;99.90;;;;;;4993872;28;20068;-68
2023/12/31 08:42:36;;;;;;;5.70;3.47;;;9.00;99.90;;;;;;5010681;28;20173;-68
2023/12/31 08:45:06;;;;;;;4.70;3.28;;;9.10;99.90;;;;;;4994431;28;20462;-67
2023/12/31 08:47:33;;;;;;;6.22;3.65;;;9.10;99.90;;;;;;5010637;28;20058;-69
2023/12/31 08:50:07;;;;;;;4.95;3.65;;;9.10;99.90;;;;;;4994152;28;20125;-68
2023/12/31 08:52:44;;;;;;;4.20;3.17;;;9.10;99.90;;;;;;5010147;28;20049;-68
2023/12/31 08:55:11;;;;;;;5.68;3.30;;;9.20;99.90;;;;;;5010449;28;20057;-68
2023/12/31 08:57:42;;;;;;;4.30;3.42;;;9.20;99.90;;;;;;4993456;28;20041;-68
2023/12/31 09:00:09;;;;;;;5.13;3.28;;;9.20;99.90;;;;;;5009569;28;20049;-68
2023/12/31 09:02:36;;;;;;;5.20;3.50;;;9.20;99.90;;;;;;5009844;28;20457;-68
2023/12/31 09:05:02;;;;;;;5.15;3.58;;;9.10;99.90;;;;;;5010312;28;20085;-68
2023/12/31 09:07:30;;;;;;;4.82;3.55;;;9.10;99.90;;;;;;5009511;28;20042;-68
2023/12/31 09:09:56;;;;;;;3.92;3.05;;;9.10;99.90;;;;;;4993734;28;20045;-68
2023/12/31 09:12:22;;;;;;;4.82;3.85;;;9.10;99.90;;;;;;5009215;28;20058;-68
2023/12/31 09:14:49;;;;;;;6.10;4.07;;;9.20;99.90;;;;;;5010172;28;20041;-68
2023/12/31 09:17:16;;;;;;;6.55;3.42;;;9.30;99.90;;;;;;5010044;28;20045;-68
2023/12/31 09:19:43;;;;;;;5.50;3.60;;;9.20;99.90;;;;;;5010249;28;20053;-68
2023/12/31 09:22:09;;;;;;;4.90;3.75;;;9.20;99.90;;;;;;5009358;28;20108;-68
2023/12/31 09:24:35;;;;;;;4.78;3.58;;;9.20;99.90;;;;;;4993463;28;20053;-68
2023/12/31 09:27:03;;;;;;;5.55;3.63;;;9.20;99.90;;;;;;5009263;28;20053;-68
2023/12/31 09:29:30;;;;;;;7.65;4.35;;;9.20;99.90;;;;;;4993139;28;20050;-68
2023/12/31 09:31:56;;;;;;;5.85;3.88;;;9.20;99.90;;;;;;5009042;28;20381;-67
2023/12/31 09:34:22;;;;;;;6.07;4.22;;;9.20;99.90;;;;;;5009847;28;20065;-68
2023/12/31 09:36:50;;;;;;;5.55;4.10;;;9.20;99.90;;;;;;4993731;28;20385;-68
2023/12/31 09:39:16;;;;;;;4.78;3.58;;;9.20;99.90;;;;;;4993315;28;20054;-67
2023/12/31 09:41:47;;;;;;;5.43;4.28;;;9.20;99.90;;;;;;5008940;28;20156;-68
2023/12/31 09:44:19;;;;;;;5.88;4.07;;;9.20;99.90;;;;;;5009727;28;20125;-68
2023/12/31 09:47:06;;;;;;;4.55;3.35;;;9.30;99.90;;;;;;5009728;28;20050;-68
2023/12/31 09:49:34;;;;;;;4.80;3.47;;;9.30;99.90;;;;;;5009248;28;20049;-69
2023/12/31 09:52:07;;;;;;;4.88;3.50;;;9.30;99.90;;;;;;4992288;28;20045;-68
2023/12/31 09:54:39;;;;;;;6.13;3.92;;;9.30;99.90;;;;;;5009386;28;20057;-68
2023/12/31 09:57:06;;;;;;;4.47;3.53;;;9.40;99.90;;;;;;5008929;28;20061;-68
2023/12/31 09:59:33;;;;;;;5.50;4.30;;;9.40;99.90;;;;;;5010012;28;20057;-68
2023/12/31 10:02:06;;;;;;;5.65;4.20;;;9.40;99.90;;;;;;4992750;28;20053;-68
2023/12/31 10:04:38;;;;;;;5.57;3.92;;;9.50;99.90;;;;;;5009290;28;20386;-67
2023/12/31 10:07:04;;;;;;;5.85;4.10;;;9.50;99.90;;;;;;5008881;28;20050;-68
2023/12/31 10:09:32;;;;;;;7.00;3.60;;;9.50;99.90;;;;;;5010125;28;20065;-68
2023/12/31 10:11:58;;;;;;;5.13;3.88;;;9.60;99.90;;;;;;5008472;28;20046;-68
2023/12/31 10:14:27;;;;;;;5.95;3.90;;;9.70;99.90;;;;;;5009013;28;20052;-68
2023/12/31 10:16:53;;;;;;;5.10;4.07;;;9.80;99.90;;;;;;5008835;28;20140;-68
2023/12/31 10:19:21;;;;;;;5.60;3.80;;;9.80;99.90;;;;;;5008448;28;20411;-68
2023/12/31 10:21:47;;;;;;;5.28;3.85;;;9.90;99.90;;;;;;5008221;28;20138;-68
2023/12/31 10:24:23;;;;;;;4.82;3.85;;;10.00;99.90;;;;;;5009056;28;20053;-68
2023/12/31 10:26:49;;;;;;;6.05;4.10;;;10.00;99.90;;;;;;5009152;28;20046;-68
2023/12/31 10:29:17;;;;;;;5.55;3.72;;;10.00;99.90;;;;;;4992508;28;20637;-67
2023/12/31 10:31:44;;;;;;;5.43;3.60;;;10.00;99.90;;;;;;5008189;28;20050;-68
2023/12/31 10:34:17;;;;;;;4.75;3.53;;;10.00;99.90;;;;;;5008538;28;20054;-67
2023/12/31 10:36:46;;;;;;;6.88;3.95;;;10.10;99.90;;;;;;5008486;28;20067;-68
2023/12/31 10:39:29;;;;;;;4.45;3.40;;;10.00;99.90;;;;;;5008565;28;20049;-68
2023/12/31 10:41:58;;;;;;;4.55;3.13;;;10.00;99.90;;;;;;4995893;28;20390;-68
2023/12/31 10:44:26;;;;;;;4.30;3.25;;;10.00;99.90;;;;;;4996848;28;20343;-68
2023/12/31 10:46:56;;;;;;;4.63;2.92;;;9.90;99.90;;;;;;5013848;28;20054;-68
2023/12/31 10:49:23;;;;;;;4.38;3.13;;;9.90;99.90;;;;;;5012498;28;20386;-68
2023/12/31 10:51:53;;;;;;;3.75;2.92;;;10.00;99.90;;;;;;5011836;28;20470;-68
2023/12/31 10:54:46;;;;;;;5.68;3.20;;;9.90;99.90;;;;;;5012895;28;20053;-67
2023/12/31 10:57:15;;;;;;;4.18;2.80;;;9.80;99.90;;;;;;4995817;28;20505;-67
2023/12/31 10:59:42;;;;;;;4.78;2.80;;;9.60;99.90;;;;;;5028645;28;20050;-67
2023/12/31 11:02:20;;;;;;;4.00;2.90;;;9.50;99.90;;;;;;5012662;28;20062;-68
2023/12/31 11:04:48;;;;;;;4.72;1.83;;;9.30;99.90;;;;;;5012741;28;20046;-68
2023/12/31 11:07:20;;;;;;;2.10;1.27;;;9.00;99.90;;;;;;4995931;28;20077;-68
2023/12/31 11:09:48;;;;;;;2.08;1.00;;;8.70;99.90;;;;;;5008863;28;20402;-68
2023/12/31 11:12:15;;;;;;;3.03;1.20;;;8.50;99.90;;;;;;4992040;28;20054;-68
2023/12/31 11:15:05;;;;;;;2.80;1.70;;;8.40;99.90;;;;;;4992608;28;20065;-68
2023/12/31 11:18:03;;;;;;;2.20;1.30;;;8.40;99.90;;;;;;4993259;28;20066;-68
2023/12/31 11:20:54;;;;;;;2.45;1.67;;;8.30;99.90;;;;;;5011939;28;20412;-69
2023/12/31 11:23:38;;;;;;;3.55;1.50;;;8.30;99.90;;;;;;5012111;28;20077;-68
2023/12/31 11:26:06;;;;;;;3.42;1.50;;;8.20;99.90;;;;;;5012397;28;20072;-68
2023/12/31 11:28:35;;;;;;;3.05;1.42;;;8.20;99.90;;;;;;5011762;28;20058;-68
2023/12/31 11:31:08;;;;;;;3.00;1.40;;;8.20;99.90;;;;;;4995134;28;20489;-68
2023/12/31 11:33:34;;;;;;;3.05;1.30;;;8.20;99.90;;;;;;5011987;28;20061;-68
2023/12/31 11:36:12;;;;;;;2.00;1.30;;;8.20;99.90;;;;;;5013098;28;20052;-68
2023/12/31 11:39:00;;;;;;;3.45;1.60;;;8.20;99.90;;;;;;4995558;28;20046;-67
2023/12/31 11:41:39;;;;;;;2.55;1.50;;;8.20;99.90;;;;;;4995312;28;20356;-68
2023/12/31 11:44:06;;;;;;;3.53;1.65;;;8.30;99.90;;;;;;5011991;28;20054;-67
2023/12/31 11:46:39;;;;;;;3.05;1.77;;;8.40;99.90;;;;;;5011864;28;20421;-68
2023/12/31 11:49:07;;;;;;;4.05;1.80;;;8.40;99.90;;;;;;5011515;28;20064;-68
2023/12/31 11:51:51;;;;;;;2.90;1.80;;;8.50;99.90;;;;;;5027095;28;20050;-68
2023/12/31 11:54:37;;;;;;;3.55;1.83;;;8.60;99.90;;;;;;5011486;28;20046;-68
2023/12/31 11:57:06;;;;;;;3.70;2.10;;;8.70;99.90;;;;;;5011022;28;20050;-68
2023/12/31 11:59:36;;;;;;;3.47;2.05;;;8.80;99.90;;;;;;4994736;28;20045;-68
2023/12/31 12:02:05;;;;;;;5.22;2.00;;;8.90;99.90;;;;;;5011151;28;20153;-68
2023/12/31 12:04:38;;;;;;;41.35;33.97;;;9.00;99.90;;;;;;5011017;28;20573;-68
2023/12/31 12:07:06;;;;;;;3.85;3.00;;;9.00;99.90;;;;;;5011183;28;20057;-68
2023/12/31 12:09:33;;;;;;;4.38;2.38;;;9.00;99.90;;;;;;5012009;28;20060;-68
2023/12/31 12:12:00;;;;;;;3.35;1.65;;;9.00;99.90;;;;;;5011010;28;20393;-68
2023/12/31 12:14:28;;;;;;;3.17;1.77;;;9.00;99.90;;;;;;5010987;28;20046;-68
2023/12/31 12:16:55;;;;;;;3.65;1.98;;;9.10;99.90;;;;;;5011114;28;20061;-68
2023/12/31 12:19:23;;;;;;;3.13;1.95;;;9.10;99.90;;;;;;5010674;28;20050;-68
2023/12/31 12:21:57;;;;;;;3.35;2.38;;;9.20;99.90;;;;;;5010647;28;20282;-69
2023/12/31 12:24:24;;;;;;;3.67;2.20;;;9.20;99.90;;;;;;5010940;28;20045;-67
2023/12/31 12:26:52;;;;;;;3.45;2.17;;;9.10;99.90;;;;;;5011283;28;20139;-68
2023/12/31 12:29:20;;;;;;;3.20;2.15;;;9.20;99.90;;;;;;5010846;28;20054;-68
2023/12/31 12:31:49;;;;;;;5.25;2.40;;;9.20;99.90;;;;;;5010729;28;20065;-68
2023/12/31 12:34:16;;;;;;;3.20;1.90;;;9.10;99.90;;;;;;4994502;28;20046;-68
2023/12/31 12:36:48;;;;;;;3.55;2.10;;;9.10;99.90;;;;;;5010750;28;20050;-68
2023/12/31 12:39:22;;;;;;;3.17;1.85;;;9.10;99.90;;;;;;5011055;28;20038;-68
2023/12/31 12:41:51;;;;;;;2.63;1.67;;;9.10;99.90;;;;;;5010680;28;20058;-68
2023/12/31 12:44:19;;;;;;;2.53;1.20;;;9.00;99.90;;;;;;5010786;28;20484;-68
2023/12/31 12:46:46;;;;;;;2.88;1.50;;;8.90;99.90;;;;;;5011060;28;20046;-68
2023/12/31 12:49:13;;;;;;;3.13;1.30;;;8.80;99.90;;;;;;4994064;28;20058;-68
2023/12/31 12:51:41;;;;;;;4.10;1.65;;;8.70;99.90;;;;;;5008998;28;20119;-67
2023/12/31 12:54:09;;;;;;;2.95;1.50;;;8.60;99.90;;;;;;5011905;28;20046;-68
2023/12/31 12:56:36;;;;;;;3.47;1.92;;;8.40;99.90;;;;;;5011445;28;20061;-68
2023/12/31 12:59:03;;;;;;;3.38;1.83;;;8.30;99.90;;;;;;4999351;28;20062;-67
2023/12/31 13:01:30;;;;;;;4.20;1.52;;;8.20;99.90;;;;;;4992029;28;20452;-68